Search for airport 
image banner adimage banner adimage banner ad
image banner ad

7PS2 - Braehead

Located in Willistown, United States

ICAO - 7PS2, IATA -

Data provided by Airmate  

General information

Coordinates: N39°59'16" W75°29'28"
Elevation is 500 feet MSL.
Magnetic variation is -11° East
View others Airports in Pennsylvania

Operational data

Special qualification required
Current time UTC:
Current local time:
Weather at : KOQN - Brandywine ( 8 km )
METAR: KOQN 182355Z AUTO 22003KT 10SM CLR 22/08 A3027 RMK AO2
View NOTAMs / SUP AIP / TFR affecting this airport [VIEW]
Communications frequencies: [VIEW]

Runways:

Airport contact information

Address: Willistown United States

Satellite view of 7PS2